In Rescue
 
Open Full Screen Window  High Contrast Mode
Wind Gusting 00 knots
07
October 30, 2020 12:59 AM EDT
Weather Information
Wind Direction
  020 °
Wind Speed
  07 kt (8 mph)
Wind Gust
  00 kt (0 mph)
Altimeter
29.97 in
Visibility
10 SM
Temperature
02° C
36° F
Dewpoint
01° C
34° F
Humidity
93%
Sky Condition
Overcast @ 1,700 ft
MVFR

METAR KBAX 300459Z AUTO 02007KT 10SM OVC017 02/01 A2997 RMK AO2 T00150012

FAA Disclaimer: The data displayed is for advisory purposes only and is not to be used for flight planning or operations.